createdAt,value
2018-04-29T00:01:10.936Z,95581.59
2018-04-29T00:03:39.001Z,95582.61
2018-04-29T00:06:07.022Z,95579.71
2018-04-29T00:08:35.076Z,95569.20
2018-04-29T00:11:03.088Z,95576.48
2018-04-29T00:13:31.416Z,95575.06
2018-04-29T00:15:59.469Z,95577.38
2018-04-29T00:18:27.466Z,95583.60
2018-04-29T00:20:55.478Z,95583.96
2018-04-29T00:23:23.609Z,95570.66
2018-04-29T00:25:51.667Z,95574.23
2018-04-29T00:28:19.693Z,95574.55
2018-04-29T00:30:47.702Z,95568.64
2018-04-29T00:33:15.722Z,95564.28
2018-04-29T00:35:43.829Z,95572.57
2018-04-29T00:38:11.876Z,95567.05
2018-04-29T00:40:39.918Z,95568.75
2018-04-29T00:43:07.902Z,95564.63
2018-04-29T00:45:35.972Z,95563.02
2018-04-29T00:48:03.964Z,95569.07
2018-04-29T00:50:31.958Z,95570.91
2018-04-29T00:52:59.879Z,95558.25
2018-04-29T00:55:27.959Z,95560.66
2018-04-29T00:57:56.026Z,95561.69
2018-04-29T01:00:24.127Z,95564.25
2018-04-29T01:02:52.187Z,95561.11
2018-04-29T01:05:20.123Z,95565.34
2018-04-29T01:07:48.126Z,95554.73
2018-04-29T01:10:16.125Z,95565.60
2018-04-29T01:12:44.144Z,95568.88
2018-04-29T01:15:12.363Z,95568.30
2018-04-29T01:17:40.405Z,95571.05
2018-04-29T01:20:08.396Z,95572.80
2018-04-29T01:22:36.392Z,95575.87
2018-04-29T01:25:04.461Z,95519.85
2018-04-29T01:27:32.521Z,95569.91
2018-04-29T01:30:00.526Z,95569.70
2018-04-29T01:32:28.491Z,95578.00
2018-04-29T01:34:56.462Z,95573.91
2018-04-29T01:37:24.434Z,95574.69
2018-04-29T01:39:52.510Z,95579.91
2018-04-29T01:42:20.476Z,95579.06
2018-04-29T01:44:48.503Z,95572.73
2018-04-29T01:47:16.483Z,95566.72
2018-04-29T01:49:44.509Z,95563.47
2018-04-29T01:52:12.541Z,95561.34
2018-04-29T01:54:40.562Z,95563.64
2018-04-29T01:57:08.619Z,95562.88
2018-04-29T01:59:36.617Z,95555.14
2018-04-29T02:02:04.669Z,95559.97
2018-04-29T02:04:32.723Z,95554.88
2018-04-29T02:07:00.746Z,95554.84
2018-04-29T02:09:28.699Z,95557.47
2018-04-29T02:11:56.697Z,95558.83
2018-04-29T02:14:24.714Z,95559.31
2018-04-29T02:16:53.028Z,95557.43
2018-04-29T02:19:20.982Z,95555.44
2018-04-29T02:21:48.947Z,95550.14
2018-04-29T02:24:17.027Z,95552.48
2018-04-29T02:26:45.051Z,95555.70
2018-04-29T02:29:13.058Z,95552.58
2018-04-29T02:31:41.115Z,95558.00
2018-04-29T02:34:09.122Z,95565.19
2018-04-29T02:36:37.217Z,95550.47
2018-04-29T02:39:05.307Z,95546.97
2018-04-29T02:41:33.364Z,95552.31
2018-04-29T02:44:01.425Z,95546.33
2018-04-29T02:46:29.428Z,95550.73
2018-04-29T02:48:57.574Z,95547.55
2018-04-29T02:51:25.568Z,95548.31
2018-04-29T02:53:53.573Z,95543.36
2018-04-29T02:56:21.628Z,95544.33
2018-04-29T02:58:49.664Z,95538.57
2018-04-29T03:04:00.082Z,95548.95
2018-04-29T03:06:28.082Z,95548.76
2018-04-29T03:08:56.102Z,95555.72
2018-04-29T03:11:24.122Z,95553.33
2018-04-29T03:13:52.158Z,95560.72
2018-04-29T03:16:20.107Z,95556.28
2018-04-29T03:18:48.504Z,95561.02
2018-04-29T03:21:16.641Z,95566.50
2018-04-29T03:23:44.629Z,95568.83
2018-04-29T03:26:12.699Z,95564.93
2018-04-29T03:28:40.734Z,95566.22
2018-04-29T03:31:08.832Z,95562.20
2018-04-29T03:33:36.829Z,95568.08
2018-04-29T03:36:04.854Z,95570.84
2018-04-29T03:38:32.892Z,95576.11
2018-04-29T03:41:00.901Z,95575.88
2018-04-29T03:43:28.930Z,95569.22
2018-04-29T03:45:57.054Z,95565.91
2018-04-29T03:48:25.081Z,95568.45
2018-04-29T03:50:53.126Z,95573.64
2018-04-29T03:53:21.169Z,95575.70
2018-04-29T03:55:49.134Z,95576.33
2018-04-29T03:58:29.043Z,95581.03
2018-04-29T04:01:09.071Z,95582.00
2018-04-29T04:03:44.528Z,95585.90
2018-04-29T04:06:12.525Z,95590.98
2018-04-29T04:08:40.501Z,95588.48
2018-04-29T04:11:08.581Z,95591.64
2018-04-29T04:13:36.574Z,95589.37
2018-04-29T04:16:04.594Z,95531.28
2018-04-29T04:18:32.610Z,95591.38
2018-04-29T04:21:00.905Z,95591.42
2018-04-29T04:23:29.041Z,95591.28
2018-04-29T04:25:57.082Z,95588.23
2018-04-29T04:28:25.131Z,95594.13
2018-04-29T04:30:53.143Z,95593.95
2018-04-29T04:33:21.177Z,95596.60
2018-04-29T04:35:49.200Z,95603.04
2018-04-29T04:38:17.261Z,95596.82
2018-04-29T04:40:45.328Z,95595.97
2018-04-29T04:43:13.355Z,95594.17
2018-04-29T04:45:41.357Z,95597.84
2018-04-29T04:48:09.299Z,95595.39
2018-04-29T04:50:37.383Z,95598.12
2018-04-29T04:53:05.432Z,95597.08
2018-04-29T04:55:33.449Z,95595.27
2018-04-29T04:58:01.522Z,95595.79
2018-04-29T05:00:29.554Z,95602.77
2018-04-29T05:02:57.529Z,95549.70
2018-04-29T05:05:25.517Z,95602.27
2018-04-29T05:07:53.500Z,95604.25
2018-04-29T05:10:22.302Z,95604.81
2018-04-29T05:12:50.488Z,95600.68
2018-04-29T05:15:18.547Z,95599.12
2018-04-29T05:17:46.590Z,95601.11
2018-04-29T05:20:14.643Z,95608.97
2018-04-29T05:22:42.867Z,95612.48
2018-04-29T05:25:10.873Z,95609.50
2018-04-29T05:27:38.931Z,95605.76
2018-04-29T05:30:07.001Z,95606.14
2018-04-29T05:32:35.095Z,95603.34
2018-04-29T05:35:02.976Z,95605.76
2018-04-29T05:37:31.072Z,95607.10
2018-04-29T05:39:59.010Z,95603.14
2018-04-29T05:42:27.014Z,95596.54
2018-04-29T05:44:55.063Z,95595.84
2018-04-29T05:47:23.122Z,95603.91
2018-04-29T05:49:51.107Z,95606.11
2018-04-29T05:52:19.157Z,95599.05
2018-04-29T05:54:47.236Z,95599.33
2018-04-29T05:57:15.321Z,95597.23
2018-04-29T05:59:43.342Z,95598.83
2018-04-29T06:02:11.450Z,95594.24
2018-04-29T06:04:39.597Z,95596.79
2018-04-29T06:07:07.599Z,95592.45
2018-04-29T06:09:36.805Z,95589.80
2018-04-29T06:12:04.867Z,95591.96
2018-04-29T06:14:32.830Z,95598.16
2018-04-29T06:17:00.802Z,95595.06
2018-04-29T06:19:28.759Z,95588.50
2018-04-29T06:21:56.830Z,95590.84
2018-04-29T06:24:25.233Z,95593.24
2018-04-29T06:26:53.247Z,95593.84
2018-04-29T06:29:21.327Z,95585.56
2018-04-29T06:31:49.360Z,95589.95
2018-04-29T06:34:17.380Z,95584.35
2018-04-29T06:36:45.333Z,95578.84
2018-04-29T06:39:13.326Z,95580.66
2018-04-29T06:41:41.410Z,95581.72
2018-04-29T06:44:09.428Z,95579.47
2018-04-29T06:46:37.476Z,95583.36
2018-04-29T06:49:05.482Z,95571.39
2018-04-29T06:51:33.591Z,95572.37
2018-04-29T06:54:01.600Z,95570.34
2018-04-29T06:56:29.578Z,95566.41
2018-04-29T06:58:57.580Z,95568.52
2018-04-29T07:01:25.622Z,95564.97
2018-04-29T07:03:53.633Z,95564.80
2018-04-29T07:06:21.654Z,95571.32
2018-04-29T07:08:49.621Z,95565.51
2018-04-29T07:11:17.695Z,95568.34
2018-04-29T07:13:45.754Z,95566.88
2018-04-29T07:16:13.832Z,95562.13
2018-04-29T07:18:41.856Z,95553.39
2018-04-29T07:21:09.922Z,95568.06
2018-04-29T07:23:37.945Z,95570.98
2018-04-29T07:26:06.327Z,95570.34
2018-04-29T07:28:34.399Z,95572.67
2018-04-29T07:31:02.378Z,95570.77
2018-04-29T07:33:30.397Z,95572.46
2018-04-29T07:35:58.447Z,95573.69
2018-04-29T07:38:26.440Z,95568.32
2018-04-29T07:40:54.459Z,95566.17
2018-04-29T07:43:22.478Z,95570.02
2018-04-29T07:45:50.540Z,95559.96
2018-04-29T07:48:18.602Z,95563.51
2018-04-29T07:50:46.626Z,95554.71
2018-04-29T07:53:14.593Z,95549.32
2018-04-29T07:55:42.568Z,95545.30
2018-04-29T07:58:10.590Z,95552.83
2018-04-29T08:00:38.692Z,95549.31
2018-04-29T08:03:12.994Z,95542.47
2018-04-29T08:05:40.986Z,95539.84
2018-04-29T08:08:08.903Z,95548.74
2018-04-29T08:10:36.888Z,95542.15
2018-04-29T08:13:04.920Z,95545.06
2018-04-29T08:15:33.053Z,95543.47
2018-04-29T08:18:01.167Z,95544.69
2018-04-29T08:20:29.187Z,95544.23
2018-04-29T08:22:57.206Z,95538.59
2018-04-29T08:25:25.253Z,95546.39
2018-04-29T08:27:53.943Z,95539.41
2018-04-29T08:30:21.961Z,95543.06
2018-04-29T08:32:49.986Z,95539.16
2018-04-29T08:35:17.923Z,95538.91
2018-04-29T08:37:45.958Z,95535.04
2018-04-29T08:40:14.002Z,95528.98
2018-04-29T08:42:42.095Z,95525.63
2018-04-29T08:45:10.134Z,95536.42
2018-04-29T08:47:38.154Z,95525.57
2018-04-29T08:50:06.212Z,95520.36
2018-04-29T08:52:34.246Z,95521.14
2018-04-29T08:55:02.320Z,95514.73
2018-04-29T08:57:30.336Z,95506.30
2018-04-29T08:59:58.428Z,95503.12
2018-04-29T09:02:26.418Z,95495.88
2018-04-29T09:04:54.411Z,95493.90
2018-04-29T09:07:22.419Z,95492.99
2018-04-29T09:09:50.363Z,95494.24
2018-04-29T09:12:18.458Z,95485.09
2018-04-29T09:14:46.504Z,95482.22
2018-04-29T09:17:14.632Z,95477.89
2018-04-29T09:19:42.691Z,95481.39
2018-04-29T09:22:10.781Z,95477.16
2018-04-29T09:24:38.798Z,95474.41
2018-04-29T09:27:06.865Z,95469.67
2018-04-29T09:29:35.345Z,95466.41
2018-04-29T09:32:03.428Z,95457.67
2018-04-29T09:34:31.479Z,95459.30
2018-04-29T09:36:59.510Z,95453.49
2018-04-29T09:39:27.484Z,95454.32
2018-04-29T09:41:55.492Z,95458.83
2018-04-29T09:44:23.500Z,95455.69
2018-04-29T09:46:51.536Z,95446.52
2018-04-29T09:49:19.563Z,95439.95
2018-04-29T09:51:47.663Z,95432.18
2018-04-29T09:54:15.635Z,95428.27
2018-04-29T09:56:43.628Z,95427.17
2018-04-29T09:59:11.645Z,95422.13
2018-04-29T10:01:39.684Z,95414.09
2018-04-29T10:04:07.705Z,95392.73
2018-04-29T10:06:35.719Z,95405.58
2018-04-29T10:09:03.923Z,95403.80
2018-04-29T10:11:31.975Z,95402.63
2018-04-29T10:13:59.991Z,95394.69
2018-04-29T10:16:28.018Z,95391.72
2018-04-29T10:18:56.090Z,95396.65
2018-04-29T10:21:24.173Z,95388.98
2018-04-29T10:23:52.227Z,95391.84
2018-04-29T10:26:20.189Z,95394.29
2018-04-29T10:28:48.218Z,95380.98
2018-04-29T10:31:16.512Z,95390.36
2018-04-29T10:33:44.559Z,95379.12
2018-04-29T10:36:12.523Z,95373.23
2018-04-29T10:38:40.526Z,95376.55
2018-04-29T10:41:08.630Z,95373.66
2018-04-29T10:43:36.606Z,95373.67
2018-04-29T10:46:04.652Z,95372.95
2018-04-29T10:48:32.637Z,95371.78
2018-04-29T10:51:00.623Z,95367.75
2018-04-29T10:53:28.598Z,95360.52
2018-04-29T10:55:56.641Z,95365.34
2018-04-29T10:58:24.593Z,95358.53
2018-04-29T11:00:52.661Z,95350.63
2018-04-29T11:03:20.693Z,95342.23
2018-04-29T11:05:48.776Z,95345.13
2018-04-29T11:08:16.736Z,95343.73
2018-04-29T11:10:44.701Z,95338.97
2018-04-29T11:13:12.732Z,95334.08
2018-04-29T11:15:40.750Z,95339.62
2018-04-29T11:18:08.880Z,95330.80
2018-04-29T11:20:36.903Z,95328.28
2018-04-29T11:23:04.984Z,95330.94
2018-04-29T11:25:32.960Z,95328.28
2018-04-29T11:28:00.971Z,95325.06
2018-04-29T11:30:28.983Z,95320.02
2018-04-29T11:32:57.471Z,95317.58
2018-04-29T11:35:25.495Z,95314.09
2018-04-29T11:37:53.622Z,95320.33
2018-04-29T11:40:21.751Z,95308.59
2018-04-29T11:42:49.759Z,95306.63
2018-04-29T11:45:17.764Z,95281.64
2018-04-29T11:47:45.797Z,95298.64
2018-04-29T11:50:13.759Z,95303.73
2018-04-29T11:52:41.728Z,95302.19
2018-04-29T11:55:09.787Z,95296.47
2018-04-29T11:57:37.790Z,95292.70
2018-04-29T12:00:05.831Z,95287.94
2018-04-29T12:02:33.919Z,95274.44
2018-04-29T12:05:01.941Z,95271.95
2018-04-29T12:07:30.025Z,95268.23
2018-04-29T12:09:58.139Z,95260.91
2018-04-29T12:12:26.173Z,95257.80
2018-04-29T12:14:54.192Z,95249.75
2018-04-29T12:17:22.260Z,95249.25
2018-04-29T12:19:50.286Z,95252.02
2018-04-29T12:22:18.280Z,95249.58
2018-04-29T12:24:46.716Z,95242.75
2018-04-29T12:27:15.039Z,95243.42
2018-04-29T12:29:43.055Z,95242.97
2018-04-29T12:32:11.083Z,95239.69
2018-04-29T12:34:39.346Z,95225.75
2018-04-29T12:37:07.303Z,95231.98
2018-04-29T12:39:35.315Z,95223.51
2018-04-29T12:42:03.408Z,95217.70
2018-04-29T12:44:31.428Z,95216.63
2018-04-29T12:46:59.453Z,95215.14
2018-04-29T12:49:27.462Z,95212.81
2018-04-29T12:51:55.516Z,95212.88
2018-04-29T12:54:23.562Z,95213.12
2018-04-29T12:56:51.555Z,95207.69
2018-04-29T12:59:19.559Z,95205.64
2018-04-29T13:01:47.588Z,95208.46
2018-04-29T13:04:15.623Z,95203.97
2018-04-29T13:06:43.732Z,95198.41
2018-04-29T13:09:11.728Z,95199.11
2018-04-29T13:11:39.717Z,95193.59
2018-04-29T13:14:07.738Z,95193.97
2018-04-29T13:16:35.729Z,95112.95
2018-04-29T13:19:03.728Z,95198.84
2018-04-29T13:21:31.755Z,95192.87
2018-04-29T13:23:59.760Z,95191.01
2018-04-29T13:26:27.771Z,95195.05
2018-04-29T13:28:55.769Z,95194.61
2018-04-29T13:31:23.785Z,95186.80
2018-04-29T13:33:51.746Z,95184.86
2018-04-29T13:36:20.069Z,95183.68
2018-04-29T13:38:48.103Z,95188.36
2018-04-29T13:41:16.109Z,95182.33
2018-04-29T13:43:44.091Z,95186.76
2018-04-29T13:46:12.075Z,95184.67
2018-04-29T13:48:40.069Z,95179.98
2018-04-29T13:51:08.026Z,95180.59
2018-04-29T13:53:36.074Z,95187.09
2018-04-29T13:56:04.100Z,95187.02
2018-04-29T13:58:32.239Z,95186.08
2018-04-29T14:01:00.206Z,95188.16
2018-04-29T14:03:28.361Z,95191.69
2018-04-29T14:05:56.400Z,95188.00
2018-04-29T14:08:24.565Z,95198.21
2018-04-29T14:10:52.539Z,95187.70
2018-04-29T14:13:20.548Z,95188.06
2018-04-29T14:15:48.547Z,95187.15
2018-04-29T14:18:16.518Z,95193.59
2018-04-29T14:20:44.471Z,95201.41
2018-04-29T14:23:12.467Z,95196.27
2018-04-29T14:25:40.458Z,95194.70
2018-04-29T14:28:08.505Z,95197.17
2018-04-29T14:30:36.526Z,95193.52
2018-04-29T14:33:04.551Z,95197.45
2018-04-29T14:35:32.571Z,95202.66
2018-04-29T14:38:00.777Z,95192.94
2018-04-29T14:40:28.830Z,95196.69
2018-04-29T14:42:56.894Z,95200.21
2018-04-29T14:45:24.971Z,95199.92
2018-04-29T14:47:52.980Z,95195.52
2018-04-29T14:50:21.082Z,95195.00
2018-04-29T14:52:49.088Z,95190.22
2018-04-29T14:55:17.121Z,95185.74
2018-04-29T14:57:45.129Z,95188.23
2018-04-29T15:00:13.182Z,95193.01
2018-04-29T15:02:41.207Z,95190.58
2018-04-29T15:05:09.229Z,95185.30
2018-04-29T15:07:37.208Z,95184.40
2018-04-29T15:10:05.263Z,95183.48
2018-04-29T15:12:33.340Z,95183.36
2018-04-29T15:15:01.442Z,95179.41
2018-04-29T15:17:29.500Z,95183.55
2018-04-29T15:19:57.602Z,95178.89
2018-04-29T15:22:25.595Z,95172.34
2018-04-29T15:24:53.737Z,95170.86
2018-04-29T15:27:21.770Z,95169.48
2018-04-29T15:29:49.789Z,95169.06
2018-04-29T15:32:17.761Z,95171.08
2018-04-29T15:34:45.770Z,95168.70
2018-04-29T15:37:13.775Z,95165.08
2018-04-29T15:39:42.171Z,95168.98
2018-04-29T15:42:10.303Z,95166.50
2018-04-29T15:44:38.347Z,95164.96
2018-04-29T15:47:06.528Z,95163.80
2018-04-29T15:49:34.535Z,95162.69
2018-04-29T15:52:02.540Z,95168.77
2018-04-29T15:54:30.594Z,95164.17
2018-04-29T15:56:58.608Z,95165.95
2018-04-29T15:59:26.609Z,95169.86
2018-04-29T16:01:54.612Z,95167.73
2018-04-29T16:04:22.609Z,95163.33
2018-04-29T16:06:50.649Z,95167.48
2018-04-29T16:09:18.691Z,95163.33
2018-04-29T16:11:46.782Z,95164.55
2018-04-29T16:14:14.772Z,95162.45
2018-04-29T16:16:42.834Z,95161.91
2018-04-29T16:19:10.857Z,95167.14
2018-04-29T16:21:38.900Z,95164.47
2018-04-29T16:24:06.916Z,95164.79
2018-04-29T16:26:34.878Z,95155.86
2018-04-29T16:29:02.924Z,95163.20
2018-04-29T16:31:30.929Z,95163.81
2018-04-29T16:33:58.980Z,95166.22
2018-04-29T16:36:27.014Z,95164.80
2018-04-29T16:38:55.017Z,95174.88
2018-04-29T16:41:23.321Z,95177.61
2018-04-29T16:43:51.271Z,95173.33
2018-04-29T16:46:19.279Z,95180.99
2018-04-29T16:48:47.289Z,95176.02
2018-04-29T16:51:15.312Z,95182.13
2018-04-29T16:53:43.298Z,95185.59
2018-04-29T16:56:11.367Z,95184.58
2018-04-29T16:58:39.295Z,95194.25
2018-04-29T17:01:07.301Z,95195.79
2018-04-29T17:03:35.350Z,95195.27
2018-04-29T17:06:03.380Z,95198.23
2018-04-29T17:08:31.445Z,95196.00
2018-04-29T17:10:59.528Z,95199.91
2018-04-29T17:13:27.585Z,95200.27
2018-04-29T17:15:55.662Z,95212.50
2018-04-29T17:18:23.669Z,95212.77
2018-04-29T17:20:51.711Z,95210.95
2018-04-29T17:23:19.858Z,95219.03
2018-04-29T17:25:47.903Z,95221.73
2018-04-29T17:28:15.869Z,95229.57
2018-04-29T17:30:43.885Z,95223.62
2018-04-29T17:33:11.870Z,95230.25
2018-04-29T17:35:39.881Z,95229.25
2018-04-29T17:38:07.908Z,95235.92
2018-04-29T17:40:35.962Z,95244.03
2018-04-29T17:43:04.275Z,95245.95
2018-04-29T17:45:32.236Z,95244.11
2018-04-29T17:48:00.285Z,95240.41
2018-04-29T17:50:28.311Z,95249.84
2018-04-29T17:52:56.319Z,95255.95
2018-04-29T17:55:24.376Z,95258.85
2018-04-29T17:57:52.446Z,95258.20
2018-04-29T18:00:20.433Z,95256.00
2018-04-29T18:02:48.498Z,95258.29
2018-04-29T18:05:16.595Z,95267.34
2018-04-29T18:07:44.586Z,95271.52
2018-04-29T18:10:12.551Z,95266.95
2018-04-29T18:12:40.557Z,95276.11
2018-04-29T18:15:08.547Z,95282.70
2018-04-29T18:17:36.555Z,95295.91
2018-04-29T18:20:04.586Z,95294.41
2018-04-29T18:22:32.611Z,95294.58
2018-04-29T18:25:00.659Z,95300.41
2018-04-29T18:27:28.818Z,95308.34
2018-04-29T18:29:56.923Z,95306.31
2018-04-29T18:32:24.926Z,95310.88
2018-04-29T18:34:53.059Z,95316.62
2018-04-29T18:37:20.965Z,95322.89
2018-04-29T18:39:48.988Z,95323.86
2018-04-29T18:42:16.984Z,95326.39
2018-04-29T18:44:45.590Z,95332.80
2018-04-29T18:47:13.541Z,95336.81
2018-04-29T18:49:41.535Z,95344.67
2018-04-29T18:52:09.529Z,95347.76
2018-04-29T18:54:37.554Z,95348.52
2018-04-29T18:57:05.559Z,95358.69
2018-04-29T18:59:33.553Z,95356.48
2018-04-29T19:02:01.559Z,95360.95
2018-04-29T19:04:29.578Z,95359.05
2018-04-29T19:06:57.603Z,95361.09
2018-04-29T19:09:25.620Z,95368.28
2018-04-29T19:11:53.832Z,95361.12
2018-04-29T19:14:21.828Z,95363.68
2018-04-29T19:16:49.854Z,95368.98
2018-04-29T19:19:17.870Z,95378.87
2018-04-29T19:21:45.877Z,95381.53
2018-04-29T19:24:14.003Z,95379.74
2018-04-29T19:26:41.960Z,95379.72
2018-04-29T19:29:10.009Z,95385.84
2018-04-29T19:31:38.082Z,95384.45
2018-04-29T19:34:06.130Z,95384.80
2018-04-29T19:36:34.110Z,95388.80
2018-04-29T19:39:02.117Z,95385.47
2018-04-29T19:41:30.160Z,95387.76
2018-04-29T19:43:58.238Z,95387.70
2018-04-29T19:46:26.717Z,95388.26
2018-04-29T19:48:54.762Z,95392.45
2018-04-29T19:51:22.740Z,95395.03
2018-04-29T19:53:50.725Z,95391.56
2018-04-29T19:56:19.267Z,95398.64
2018-04-29T19:58:47.318Z,95396.29
2018-04-29T20:01:15.334Z,95385.62
2018-04-29T20:03:43.329Z,95386.81
2018-04-29T20:06:11.493Z,95392.69
2018-04-29T20:08:39.513Z,95398.58
2018-04-29T20:11:07.468Z,95390.69
2018-04-29T20:13:35.487Z,95390.01
2018-04-29T20:16:03.513Z,95391.98
2018-04-29T20:18:31.519Z,95389.27
2018-04-29T20:20:59.472Z,95391.34
2018-04-29T20:23:27.535Z,95396.87
2018-04-29T20:25:55.474Z,95394.84
2018-04-29T20:28:23.497Z,95399.34
2018-04-29T20:30:51.500Z,95397.70
2018-04-29T20:33:19.520Z,95399.49
2018-04-29T20:35:47.546Z,95393.26
2018-04-29T20:38:15.585Z,95395.44
2018-04-29T20:40:43.658Z,95395.64
2018-04-29T20:43:11.755Z,95397.31
2018-04-29T20:45:39.760Z,95394.45
2018-04-29T20:48:08.137Z,95394.89
2018-04-29T20:50:36.182Z,95397.47
2018-04-29T20:53:04.157Z,95399.11
2018-04-29T20:55:32.202Z,95398.44
2018-04-29T20:58:00.294Z,95407.91
2018-04-29T21:00:28.332Z,95407.02
2018-04-29T21:02:56.383Z,95407.19
2018-04-29T21:05:24.331Z,95407.65
2018-04-29T21:07:52.420Z,95404.20
2018-04-29T21:10:20.447Z,95402.36
2018-04-29T21:12:48.470Z,95405.00
2018-04-29T21:15:16.533Z,95401.90
2018-04-29T21:17:44.498Z,95406.60
2018-04-29T21:20:12.611Z,95396.59
2018-04-29T21:22:40.596Z,95395.86
2018-04-29T21:25:08.623Z,95397.57
2018-04-29T21:27:36.690Z,95407.98
2018-04-29T21:30:04.732Z,95409.55
2018-04-29T21:32:32.821Z,95411.23
2018-04-29T21:35:00.838Z,95398.34
2018-04-29T21:37:28.879Z,95396.39
2018-04-29T21:39:56.872Z,95396.48
2018-04-29T21:42:24.913Z,95397.52
2018-04-29T21:44:52.937Z,95397.14
2018-04-29T21:47:20.943Z,95392.78
2018-04-29T21:49:49.334Z,95398.64
2018-04-29T21:52:17.361Z,95383.82
2018-04-29T21:54:45.351Z,95395.09
2018-04-29T21:57:13.331Z,95392.41
2018-04-29T21:59:41.333Z,95391.95
2018-04-29T22:02:09.418Z,95382.12
2018-04-29T22:04:37.422Z,95385.18
2018-04-29T22:07:05.453Z,95385.91
2018-04-29T22:09:33.499Z,95392.55
2018-04-29T22:12:01.459Z,95389.14
2018-04-29T22:14:29.518Z,95392.09
2018-04-29T22:16:57.634Z,95392.88
2018-04-29T22:19:25.673Z,95394.61
2018-04-29T22:21:53.686Z,95395.46
2018-04-29T22:24:21.730Z,95393.47
2018-04-29T22:26:49.747Z,95394.90
2018-04-29T22:29:17.798Z,95397.09
2018-04-29T22:31:45.819Z,95395.00
2018-04-29T22:34:13.875Z,95400.39
2018-04-29T22:36:41.914Z,95396.73
2018-04-29T22:39:09.956Z,95397.34
2018-04-29T22:41:38.017Z,95400.22
2018-04-29T22:44:06.199Z,95395.91
2018-04-29T22:46:34.222Z,95396.94
2018-04-29T22:49:02.229Z,95397.87
2018-04-29T22:51:30.493Z,95400.73
2018-04-29T22:53:58.542Z,95401.59
2018-04-29T22:56:26.509Z,95398.17
2018-04-29T22:58:54.552Z,95391.95
2018-04-29T23:01:22.621Z,95394.80
2018-04-29T23:03:50.689Z,95394.98
2018-04-29T23:06:18.677Z,95397.10
2018-04-29T23:08:46.701Z,95400.89
2018-04-29T23:11:14.707Z,95399.23
2018-04-29T23:13:42.734Z,95400.44
2018-04-29T23:16:10.735Z,95401.70
2018-04-29T23:18:38.767Z,95397.20
2018-04-29T23:21:06.783Z,95394.66
2018-04-29T23:23:34.871Z,95390.31
2018-04-29T23:26:02.957Z,95386.16
2018-04-29T23:28:30.949Z,95386.75
2018-04-29T23:30:59.007Z,95379.09
2018-04-29T23:33:27.077Z,95374.61
2018-04-29T23:35:55.106Z,95374.15
2018-04-29T23:38:23.039Z,95367.13
2018-04-29T23:40:51.029Z,95369.16
2018-04-29T23:43:19.117Z,95359.30
2018-04-29T23:45:47.149Z,95365.61
2018-04-29T23:48:15.161Z,95366.80
2018-04-29T23:50:43.186Z,95366.03
2018-04-29T23:53:11.368Z,95361.28
2018-04-29T23:55:39.346Z,95360.89
2018-04-29T23:58:07.309Z,95357.08
